Time;durP1;ratioP1;P1;durP2;ratioP2;P2;SDS_P1;SDS_P2;PMS_P1;PMS_P2;Temp;Humidity;BMP_temperature;BMP_pressure;BME280_temperature;BME280_humidity;BME280_pressure;Samples;Min_cycle;Max_cycle;Signal;HPM_P1;HPM_P2
2023/06/12 00:00:09;38805.00;0.13;67.82;0.00;0.00;0.62;;;;;21.60;1.00;;;;;;2276377;61;1136;-89
2023/06/12 00:02:37;200473.00;0.67;346.74;29514.00;0.10;51.74;;;;;21.70;1.00;;;;;;2276418;61;2002;-89
2023/06/12 00:05:05;0.00;0.00;0.62;0.00;0.00;0.62;;;;;21.70;1.00;;;;;;2276400;61;947;-88
2023/06/12 00:07:32;20679.00;0.07;36.45;0.00;0.00;0.62;;;;;21.90;1.00;;;;;;2276391;61;1415;-89
2023/06/12 00:09:59;30925.00;0.10;54.18;0.00;0.00;0.62;;;;;21.90;1.00;;;;;;2276484;61;1090;-88
2023/06/12 00:12:26;43130.00;0.14;75.30;0.00;0.00;0.62;;;;;21.70;1.00;;;;;;2276495;61;1120;-89
2023/06/12 00:14:53;80449.00;0.27;139.81;0.00;0.00;0.62;;;;;21.70;1.00;;;;;;2276478;61;938;-88
2023/06/12 00:17:21;63578.00;0.21;110.66;0.00;0.00;0.62;;;;;21.60;1.00;;;;;;2276427;61;1412;-87
2023/06/12 00:19:48;20483.00;0.07;36.11;0.00;0.00;0.62;;;;;21.50;1.00;;;;;;2276322;61;994;-87
2023/06/12 00:22:16;36483.00;0.12;63.80;0.00;0.00;0.62;;;;;21.50;1.00;;;;;;2276420;61;1912;-88
2023/06/12 00:24:43;0.00;0.00;0.62;0.00;0.00;0.62;;;;;21.50;1.00;;;;;;2276315;61;1165;-88
2023/06/12 00:27:11;32334.00;0.11;56.62;0.00;0.00;0.62;;;;;21.30;1.00;;;;;;2276354;61;1362;-87
2023/06/12 00:29:37;34697.00;0.12;60.71;0.00;0.00;0.62;;;;;21.10;1.00;;;;;;2276359;61;1643;-88
2023/06/12 00:32:05;222627.00;0.74;384.86;54705.00;0.18;95.32;;;;;21.20;1.00;;;;;;2276439;61;932;-87
2023/06/12 00:34:33;8857.00;0.03;15.97;0.00;0.00;0.62;;;;;21.40;1.00;;;;;;2276368;61;1146;-89
2023/06/12 00:37:00;28274.00;0.09;49.60;0.00;0.00;0.62;;;;;21.20;1.00;;;;;;2276193;61;1382;-89
2023/06/12 00:39:27;29391.00;0.10;51.53;0.00;0.00;0.62;;;;;21.20;1.00;;;;;;2276338;61;1026;-88
2023/06/12 00:41:54;178119.00;0.59;308.25;0.00;0.00;0.62;;;;;20.90;1.00;;;;;;2276348;61;1044;-88
2023/06/12 00:44:20;20830.00;0.07;36.71;0.00;0.00;0.62;;;;;20.90;1.00;;;;;;2276205;61;1940;-89
2023/06/12 00:46:47;0.00;0.00;0.62;0.00;0.00;0.62;;;;;20.90;1.00;;;;;;2276282;61;1398;-87
2023/06/12 00:49:14;33389.00;0.11;58.45;0.00;0.00;0.62;;;;;21.10;1.00;;;;;;2276213;61;955;-86
2023/06/12 00:51:43;4723.00;0.02;8.81;0.00;0.00;0.62;;;;;21.00;1.00;;;;;;2276262;61;1109;-87
2023/06/12 00:54:10;23213.00;0.08;40.83;0.00;0.00;0.62;;;;;21.00;1.00;;;;;;2276502;61;1009;-85
2023/06/12 00:56:37;36908.00;0.12;64.54;0.00;0.00;0.62;;;;;20.90;1.00;;;;;;2276936;61;1304;-87
2023/06/12 00:59:04;11002.00;0.04;19.69;0.00;0.00;0.62;;;;;20.70;1.00;;;;;;2276965;61;1160;-87
2023/06/12 01:01:32;11452.00;0.04;20.46;0.00;0.00;0.62;;;;;20.40;1.00;;;;;;2277012;61;1109;-87
2023/06/12 01:04:00;206348.00;0.69;356.85;30194.00;0.10;52.92;;;;;20.40;1.00;;;;;;2276992;61;1989;-86
2023/06/12 01:06:38;44044.00;0.15;76.88;0.00;0.00;0.62;;;;;20.40;1.00;;;;;;2276928;61;1748;-88
2023/06/12 01:09:18;91827.00;0.31;159.46;25398.00;0.08;44.62;;;;;20.50;1.00;;;;;;2276947;61;1589;-87
2023/06/12 01:11:46;247994.00;0.83;428.50;0.00;0.00;0.62;;;;;20.50;1.00;;;;;;2276606;61;1026;-87
2023/06/12 01:14:16;201364.00;0.67;348.27;0.00;0.00;0.62;;;;;20.70;1.00;;;;;;2276975;61;1050;-89
2023/06/12 01:16:44;61354.00;0.20;106.82;0.00;0.00;0.62;;;;;20.60;1.00;;;;;;2276903;61;1650;-87
2023/06/12 01:19:13;129508.00;0.43;224.48;0.00;0.00;0.62;;;;;20.70;1.00;;;;;;2276979;61;1048;-88
2023/06/12 01:21:43;210833.00;0.70;364.57;50819.00;0.17;88.60;;;;;20.70;1.00;;;;;;2276995;61;1148;-88
2023/06/12 01:24:30;76817.00;0.26;133.54;0.00;0.00;0.62;;;;;20.90;1.00;;;;;;2276850;61;1988;-89
2023/06/12 01:27:18;343343.00;1.14;592.42;66525.00;0.22;115.76;;;;;20.90;1.00;;;;;;2276877;61;1444;-87
2023/06/12 01:30:08;252778.00;0.84;436.73;0.00;0.00;0.62;;;;;20.90;1.00;;;;;;2276948;61;1082;-88
2023/06/12 01:32:38;139048.00;0.46;240.93;0.00;0.00;0.62;;;;;20.80;1.00;;;;;;2276887;61;2154;-87
2023/06/12 01:35:11;301610.00;1.01;520.69;71875.00;0.24;125.00;;;;;20.80;1.00;;;;;;2276909;61;1072;-88
2023/06/12 01:37:43;381649.00;1.27;658.26;105272.00;0.35;182.67;;;;;20.90;1.00;;;;;;2276828;61;1361;-87
2023/06/12 01:40:13;294913.00;0.98;509.18;87641.00;0.29;152.23;;;;;20.90;1.00;;;;;;2276816;61;1141;-87
2023/06/12 01:42:40;237803.00;0.79;410.97;82333.00;0.27;143.07;;;;;20.90;1.00;;;;;;2276749;61;1994;-88
2023/06/12 01:45:08;348127.00;1.16;600.64;78397.00;0.26;136.27;;;;;20.60;1.00;;;;;;2276816;61;918;-86
2023/06/12 01:47:37;347437.00;1.16;599.46;86010.00;0.29;149.42;;;;;20.40;1.00;;;;;;2276826;61;1339;-86
2023/06/12 01:50:05;340421.00;1.13;587.40;86030.00;0.29;149.45;;;;;20.20;1.00;;;;;;2276741;61;1550;-87
2023/06/12 01:52:34;245003.00;0.82;423.36;82107.00;0.27;142.68;;;;;20.20;1.00;;;;;;2276687;61;1562;-88
2023/06/12 01:55:02;401933.00;1.34;693.13;83285.00;0.28;144.71;;;;;20.40;1.00;;;;;;2276842;61;1095;-87
2023/06/12 01:57:30;410732.00;1.37;708.26;84849.00;0.28;147.41;;;;;20.40;1.00;;;;;;2276790;61;1316;-87
2023/06/12 01:59:57;458080.00;1.53;789.68;82472.00;0.27;143.31;;;;;20.10;1.00;;;;;;2276766;61;1005;-87
2023/06/12 02:02:24;501129.00;1.67;863.77;83811.00;0.28;145.62;;;;;20.10;1.00;;;;;;2276746;61;1118;-88
2023/06/12 02:04:53;402324.00;1.34;693.80;90175.00;0.30;156.61;;;;;20.10;1.00;;;;;;2276708;61;1931;-87
2023/06/12 02:07:21;502323.00;1.67;865.82;84879.00;0.28;147.46;;;;;20.30;1.00;;;;;;2276658;61;1280;-87
2023/06/12 02:09:47;444622.00;1.48;766.53;82482.00;0.27;143.32;;;;;20.10;1.00;;;;;;2276819;61;1043;-87
2023/06/12 02:12:14;675892.00;2.25;1165.46;84333.00;0.28;146.52;;;;;20.00;1.00;;;;;;2276797;61;1065;-86
2023/06/12 02:14:42;516730.00;1.72;890.63;93485.00;0.31;162.32;;;;;20.10;1.00;;;;;;2276779;61;1000;-87
2023/06/12 02:17:09;422289.00;1.41;728.13;86310.00;0.29;149.94;;;;;20.20;1.00;;;;;;2276664;61;1325;-88
2023/06/12 02:19:36;539727.00;1.80;930.25;85667.00;0.29;148.83;;;;;20.20;1.00;;;;;;2276761;61;994;-87
2023/06/12 02:22:05;385396.00;1.28;664.70;75637.00;0.25;131.50;;;;;20.20;1.00;;;;;;2276749;61;968;-88
2023/06/12 02:24:33;579289.00;1.93;998.47;68626.00;0.23;119.39;;;;;20.20;1.00;;;;;;2276621;61;1995;-87
2023/06/12 02:27:00;962083.00;3.21;1665.43;100414.00;0.33;174.29;;;;;20.20;1.00;;;;;;2276650;61;1391;-87
2023/06/12 02:29:26;578550.00;1.93;997.20;91039.00;0.30;158.10;;;;;20.30;1.00;;;;;;2276664;61;1414;-86
2023/06/12 02:31:53;418866.00;1.40;722.24;91712.00;0.31;159.26;;;;;20.30;1.00;;;;;;2276729;61;912;-86
2023/06/12 02:34:20;371607.00;1.24;641.00;81340.00;0.27;141.35;;;;;20.40;1.00;;;;;;2276719;61;1142;-87
2023/06/12 02:36:47;495128.00;1.65;853.44;84326.00;0.28;146.51;;;;;20.40;1.00;;;;;;2276662;61;1340;-89
2023/06/12 02:39:16;117621416.00;392.07;65915860.00;87427.00;0.29;151.86;;;;;20.20;1.00;;;;;;2276702;61;885;-87
2023/06/12 02:41:46;474255.00;1.58;817.51;82187.00;0.27;142.81;;;;;20.10;1.00;;;;;;2276648;61;1038;-88
2023/06/12 02:44:13;495544.00;1.65;854.15;81443.00;0.27;141.53;;;;;19.90;1.00;;;;;;2276573;61;1911;-87
2023/06/12 02:46:51;398692.00;1.33;687.56;80589.00;0.27;140.05;;;;;19.90;1.00;;;;;;2276635;61;1415;-87
2023/06/12 02:49:18;286304.00;0.95;494.38;0.00;0.00;0.62;;;;;20.00;1.00;;;;;;2276642;61;1159;-88
2023/06/12 02:51:45;352969.00;1.18;608.96;25752.00;0.09;45.23;;;;;20.10;1.00;;;;;;2276649;61;1165;-86
2023/06/12 02:54:13;371284.00;1.24;640.44;0.00;0.00;0.62;;;;;20.20;1.00;;;;;;2276610;61;1032;-89
2023/06/12 02:56:44;225663.00;0.75;390.09;0.00;0.00;0.62;;;;;20.30;1.00;;;;;;2276549;61;1371;-88
2023/06/12 02:59:13;212775.00;0.71;367.91;236.00;0.00;1.03;;;;;20.10;1.00;;;;;;2276627;61;1098;-87
2023/06/12 03:01:43;365492.00;1.22;630.49;0.00;0.00;0.62;;;;;19.90;1.00;;;;;;2276620;61;1240;-87
2023/06/12 03:04:11;464692.00;1.55;801.06;0.00;0.00;0.62;;;;;19.90;1.00;;;;;;2276521;61;1919;-88
2023/06/12 03:06:38;155893.00;0.52;269.96;0.00;0.00;0.62;;;;;20.10;1.00;;;;;;2276593;61;1389;-87
2023/06/12 03:09:05;105175.00;0.35;182.50;0.00;0.00;0.62;;;;;19.90;1.00;;;;;;2276555;61;1055;-88
2023/06/12 03:11:33;126794.00;0.42;219.80;0.00;0.00;0.62;;;;;19.90;1.00;;;;;;2276634;61;1031;-87
2023/06/12 03:14:02;171707.00;0.57;297.21;0.00;0.00;0.62;;;;;20.00;1.00;;;;;;2276501;61;1179;-87
2023/06/12 03:16:30;278553.00;0.93;481.05;14247.00;0.05;25.31;;;;;20.00;1.00;;;;;;2276534;61;1380;-88
2023/06/12 03:18:57;305533.00;1.02;527.43;15275.00;0.05;27.09;;;;;20.00;1.00;;;;;;2276347;61;1059;-88
2023/06/12 03:21:24;391445.00;1.30;675.10;52318.00;0.17;91.19;;;;;19.90;1.00;;;;;;2276578;61;1003;-88
2023/06/12 03:23:51;308220.00;1.03;532.05;0.00;0.00;0.62;;;;;19.80;1.00;;;;;;2276411;61;1990;-88
2023/06/12 03:28:46;468163.00;1.56;807.03;0.00;0.00;0.62;;;;;19.80;1.00;;;;;;2286440;61;1418;-86
2023/06/12 03:31:15;295224.00;0.98;509.71;0.00;0.00;0.62;;;;;19.60;1.00;;;;;;2284709;61;933;-87
2023/06/12 03:33:41;352022.00;1.17;607.34;0.00;0.00;0.62;;;;;19.70;1.00;;;;;;2284711;61;1008;-87
2023/06/12 03:36:11;270714.00;0.90;467.57;0.00;0.00;0.62;;;;;19.50;1.00;;;;;;2284640;61;1393;-88
2023/06/12 03:38:38;353040.00;1.18;609.09;0.00;0.00;0.62;;;;;19.70;1.00;;;;;;2284685;61;1031;-85
2023/06/12 03:41:05;281597.00;0.94;486.28;0.00;0.00;0.62;;;;;19.70;1.00;;;;;;2284629;61;905;-88
2023/06/12 03:43:31;340066.00;1.13;586.79;0.00;0.00;0.62;;;;;19.70;1.00;;;;;;2284570;61;1910;-87
2023/06/12 03:45:58;239456.00;0.80;413.82;0.00;0.00;0.62;;;;;19.50;1.00;;;;;;2284589;61;1287;-86
2023/06/12 03:48:27;375544.00;1.25;647.77;0.00;0.00;0.62;;;;;19.60;1.00;;;;;;2284632;61;1069;-88
2023/06/12 03:50:53;389606.00;1.30;671.94;51541.00;0.17;89.85;;;;;19.80;1.00;;;;;;2284608;61;1130;-87
2023/06/12 03:53:20;446697.00;1.49;770.10;39953.00;0.13;69.81;;;;;19.80;1.00;;;;;;2284603;61;959;-87
2023/06/12 03:55:47;454207.00;1.51;783.02;0.00;0.00;0.62;;;;;19.90;1.00;;;;;;2284485;61;1351;-87
2023/06/12 03:58:16;703072.00;2.34;1212.57;0.00;0.00;0.62;;;;;19.80;1.00;;;;;;2284581;61;1081;-87
2023/06/12 04:00:45;1094755.00;3.65;1901.05;69388.00;0.23;120.70;;;;;20.00;1.00;;;;;;2284612;61;1122;-88
2023/06/12 04:03:14;976094.00;3.25;1690.18;39077.00;0.13;68.29;;;;;20.10;1.00;;;;;;2284627;61;1285;-85
2023/06/12 04:05:42;1108389.00;3.69;1925.43;52358.00;0.17;91.26;;;;;20.10;1.00;;;;;;2284522;61;1417;-90
2023/06/12 04:08:09;888414.00;2.96;1535.78;17150.00;0.06;30.33;;;;;20.00;1.00;;;;;;2284555;61;1112;-87
2023/06/12 04:10:36;1422591.00;4.74;2498.29;192404.00;0.64;332.85;;;;;20.00;1.00;;;;;;2284587;61;1063;-87
2023/06/12 04:13:03;1151882.00;3.84;2003.46;118652.00;0.40;205.76;;;;;20.20;1.00;;;;;;2284624;61;981;-87
2023/06/12 04:15:30;1080203.00;3.60;1875.06;117718.00;0.39;204.15;;;;;20.30;1.00;;;;;;2284510;61;1381;-86
2023/06/12 04:17:58;1141828.00;3.81;1985.39;129056.00;0.43;223.70;;;;;20.10;1.00;;;;;;2284554;61;1106;-87
2023/06/12 04:20:27;1065285.00;3.55;1848.45;226611.00;0.76;391.72;;;;;20.30;1.00;;;;;;2284537;61;1789;-86
2023/06/12 04:22:56;1250179.00;4.17;2181.21;190888.00;0.64;330.24;;;;;20.40;1.00;;;;;;2284592;61;871;-88
2023/06/12 04:25:25;1085126.00;3.62;1883.84;130901.00;0.44;226.88;;;;;20.30;1.00;;;;;;2284421;61;1927;-86
2023/06/12 04:27:52;523869.00;1.75;902.93;96201.00;0.32;167.01;;;;;20.30;1.00;;;;;;2284387;61;1555;-87
2023/06/12 04:30:21;262150.00;0.87;452.85;80107.00;0.27;139.22;;;;;20.20;1.00;;;;;;2285065;61;1193;-88
2023/06/12 04:32:48;417235.00;1.39;719.44;86260.00;0.29;149.85;;;;;20.10;1.00;;;;;;2285121;61;1006;-88
2023/06/12 04:35:16;337099.00;1.12;581.69;74196.00;0.25;129.01;;;;;20.10;1.00;;;;;;2285226;61;926;-87
2023/06/12 04:37:43;368982.00;1.23;636.49;84107.00;0.28;146.13;;;;;20.40;1.00;;;;;;2285212;61;1323;-88
2023/06/12 04:40:14;325949.00;1.09;562.52;76773.00;0.26;133.46;;;;;20.50;1.00;;;;;;2285158;61;1751;-87
2023/06/12 04:42:43;433609.00;1.45;747.59;76041.00;0.25;132.20;;;;;20.60;1.00;;;;;;2285224;61;1125;-87
2023/06/12 04:45:12;232618.00;0.78;402.05;79921.00;0.27;138.90;;;;;20.80;1.00;;;;;;2285131;61;1996;-88
2023/06/12 04:47:39;119508768.00;398.36;69143080.00;80582.00;0.27;140.04;;;;;20.80;1.00;;;;;;2285104;61;1238;-88
2023/06/12 04:50:09;195096.00;0.65;337.48;82731.00;0.28;143.75;;;;;20.80;1.00;;;;;;2285074;61;1577;-88
2023/06/12 04:52:36;312714.00;1.04;539.77;80742.00;0.27;140.32;;;;;21.00;1.00;;;;;;2285144;61;982;-88
2023/06/12 04:55:03;294333.00;0.98;508.18;79200.00;0.26;137.66;;;;;21.10;1.00;;;;;;2285105;61;1042;-87
2023/06/12 04:57:32;321193.00;1.07;554.35;87658.00;0.29;152.26;;;;;21.00;1.00;;;;;;2285075;61;1395;-88
2023/06/12 04:59:59;225664.00;0.75;390.09;82140.00;0.27;142.73;;;;;20.80;1.00;;;;;;2285118;61;1125;-87
2023/06/12 05:02:26;252862.00;0.84;436.87;81916.00;0.27;142.35;;;;;20.70;1.00;;;;;;2285113;61;1124;-87
2023/06/12 05:04:53;204229.00;0.68;353.20;84651.00;0.28;147.07;;;;;20.80;1.00;;;;;;2285135;61;1917;-87
2023/06/12 05:07:21;194340.00;0.65;336.18;77081.00;0.26;133.99;;;;;20.90;1.00;;;;;;2285119;61;1291;-87
2023/06/12 05:09:48;266535.00;0.89;460.39;76918.00;0.26;133.71;;;;;20.80;1.00;;;;;;2285049;61;1291;-86
2023/06/12 05:14:49;350468.00;1.17;604.67;83637.00;0.28;145.32;;;;;20.90;1.00;;;;;;2274843;61;1356;-89
2023/06/12 05:17:17;340804.00;1.14;588.06;80302.00;0.27;139.56;;;;;21.00;1.00;;;;;;2272801;61;1313;-87
2023/06/12 05:19:44;227429.00;0.76;393.13;78787.00;0.26;136.94;;;;;21.00;1.00;;;;;;2272755;61;1062;-87
2023/06/12 05:22:11;261221.00;0.87;451.25;70697.00;0.24;122.96;;;;;21.00;1.00;;;;;;2272672;61;1203;-88
2023/06/12 05:24:38;281392.00;0.94;485.93;85718.00;0.29;148.91;;;;;21.10;1.00;;;;;;2272739;61;2009;-87
2023/06/12 05:27:07;173311.00;0.58;299.97;78460.00;0.26;136.38;;;;;21.50;1.00;;;;;;2272747;61;1306;-88
2023/06/12 05:29:34;341011.00;1.14;588.41;78161.00;0.26;135.86;;;;;21.90;1.00;;;;;;2272738;61;1595;-87
2023/06/12 05:32:04;194586.00;0.65;336.60;78462.00;0.26;136.38;;;;;22.30;1.00;;;;;;2272784;61;1081;-87
2023/06/12 05:34:32;234691.00;0.78;405.62;82001.00;0.27;142.49;;;;;22.70;1.00;;;;;;2272749;61;1688;-88
2023/06/12 05:36:58;272564.00;0.91;470.75;96051.00;0.32;166.75;;;;;23.20;1.00;;;;;;2272673;61;1542;-89
2023/06/12 05:39:25;275533.00;0.92;475.86;68876.00;0.23;119.82;;;;;23.50;1.00;;;;;;2272747;61;1043;-88
2023/06/12 05:41:52;283540.00;0.95;489.62;79563.00;0.27;138.28;;;;;24.60;1.00;;;;;;2272477;61;987;-88
2023/06/12 05:44:19;205594.00;0.69;355.55;80388.00;0.27;139.71;;;;;26.40;1.00;;;;;;2272626;61;1911;-89
2023/06/12 05:46:50;354297.00;1.18;611.25;83395.00;0.28;144.90;;;;;28.00;1.00;;;;;;2272508;61;1915;-88
2023/06/12 05:49:19;531791.00;1.77;916.58;110300.00;0.37;191.35;;;;;29.50;1.00;;;;;;2272667;61;1085;-88
2023/06/12 05:51:46;118660408.00;395.53;67679720.00;83837.00;0.28;145.66;;;;;31.10;1.00;;;;;;2272410;61;1673;-89
2023/06/12 05:54:12;196896.00;0.66;340.58;76691.00;0.26;133.32;;;;;31.50;1.00;;;;;;2272441;61;943;-89
2023/06/12 05:56:39;266815.00;0.89;460.87;80345.00;0.27;139.63;;;;;32.10;1.00;;;;;;2272450;61;1379;-88
2023/06/12 05:59:07;261720.00;0.87;452.11;77945.00;0.26;135.49;;;;;32.90;1.00;;;;;;2272513;61;1101;-89
2023/06/12 06:01:35;240695.00;0.80;415.95;75144.00;0.25;130.65;;;;;33.50;1.00;;;;;;2272552;61;1122;-87
2023/06/12 06:04:02;279092.00;0.93;481.98;74875.00;0.25;130.18;;;;;34.30;1.00;;;;;;2272486;61;1919;-88
2023/06/12 06:06:31;217380.00;0.72;375.84;72183.00;0.24;125.53;;;;;35.40;1.00;;;;;;2272253;61;1641;-90
2023/06/12 06:08:59;219089.00;0.73;378.78;79010.00;0.26;137.33;;;;;35.40;1.00;;;;;;2272447;61;1518;-89
2023/06/12 06:11:28;187305.00;0.62;324.07;72599.00;0.24;126.25;;;;;34.50;1.00;;;;;;2272504;61;1141;-87
2023/06/12 06:13:55;173510.00;0.58;300.31;79591.00;0.27;138.33;;;;;35.10;1.00;;;;;;2272423;61;1095;-89
2023/06/12 06:16:22;372739.00;1.24;642.94;71033.00;0.24;123.55;;;;;36.00;1.00;;;;;;2272309;61;1302;-90
2023/06/12 06:18:50;232494.00;0.77;401.84;64217.00;0.21;111.77;;;;;36.20;1.00;;;;;;2272282;61;997;-86
2023/06/12 06:21:17;325529.00;1.09;561.80;70139.00;0.23;122.00;;;;;35.20;1.00;;;;;;2272417;61;1535;-88
2023/06/12 06:23:46;230529.00;0.77;398.46;75670.00;0.25;131.56;;;;;34.60;1.00;;;;;;2272246;61;909;-87
2023/06/12 06:26:13;376518.00;1.26;649.44;79943.00;0.27;138.94;;;;;35.10;1.00;;;;;;2272136;61;2021;-86
2023/06/12 06:28:40;117351608.00;391.17;65462892.00;51884.00;0.17;90.44;;;;;35.70;1.00;;;;;;2272253;61;1070;-89
2023/06/12 06:33:51;335331.00;1.12;578.65;0.00;0.00;0.62;;;;;35.40;1.00;;;;;;2272218;61;1614;-87
2023/06/12 06:36:18;364090.00;1.21;628.08;0.00;0.00;0.62;;;;;34.50;1.00;;;;;;2272179;61;1604;-88
2023/06/12 06:38:47;373070.00;1.24;643.51;138797.00;0.46;240.50;;;;;34.10;1.00;;;;;;2272251;61;1087;-87
2023/06/12 06:41:14;182533.00;0.61;315.85;0.00;0.00;0.62;;;;;34.90;1.00;;;;;;2272227;61;931;-88
2023/06/12 06:43:41;390315.00;1.30;673.16;0.00;0.00;0.62;;;;;34.70;1.00;;;;;;2272215;61;1459;-88
2023/06/12 06:46:08;441030.00;1.47;760.35;9355.00;0.03;16.83;;;;;34.00;1.00;;;;;;2272187;61;1924;-87
2023/06/12 06:48:41;493938.00;1.65;851.39;0.00;0.00;0.62;;;;;33.50;1.00;;;;;;2272204;61;1586;-89
2023/06/12 06:51:10;437954.00;1.46;755.06;0.00;0.00;0.62;;;;;34.40;1.00;;;;;;2272193;61;1231;-89
2023/06/12 06:53:39;343787.00;1.15;593.18;23797.00;0.08;41.84;;;;;34.70;1.00;;;;;;2272074;61;1561;-87
2023/06/12 06:56:10;351114.00;1.17;605.78;0.00;0.00;0.62;;;;;35.10;1.00;;;;;;2272026;61;1484;-87
2023/06/12 06:58:37;234655.00;0.78;405.56;0.00;0.00;0.62;;;;;35.80;1.00;;;;;;2272095;61;1491;-88
2023/06/12 07:01:06;182644.00;0.61;316.04;30113.00;0.10;52.78;;;;;35.60;1.00;;;;;;2272102;61;1624;-88
2023/06/12 07:03:33;191584.00;0.64;331.44;10878.00;0.04;19.47;;;;;34.90;1.00;;;;;;2272222;61;910;-87
2023/06/12 07:06:00;145705.00;0.49;252.40;0.00;0.00;0.62;;;;;34.60;1.00;;;;;;2272075;61;1915;-88
2023/06/12 07:08:27;310454.00;1.03;535.89;0.00;0.00;0.62;;;;;35.20;1.00;;;;;;2272173;61;1035;-87
2023/06/12 07:10:53;451370.00;1.50;778.14;16041.00;0.05;28.41;;;;;35.40;1.00;;;;;;2272024;61;1552;-86
2023/06/12 07:13:22;425613.00;1.42;733.84;0.00;0.00;0.62;;;;;36.00;1.00;;;;;;2272040;61;1591;-89
2023/06/12 07:15:49;76865.00;0.26;133.62;0.00;0.00;0.62;;;;;36.70;1.00;;;;;;2272002;61;1328;-88
2023/06/12 07:18:16;99914.00;0.33;173.42;0.00;0.00;0.62;;;;;36.90;1.00;;;;;;2272165;61;987;-87
2023/06/12 07:20:43;549497.00;1.83;947.09;35995.00;0.12;62.96;;;;;36.90;1.00;;;;;;2272193;61;965;-87
2023/06/12 07:23:11;163239.00;0.54;282.62;0.00;0.00;0.62;;;;;37.00;1.00;;;;;;2272055;61;1062;-88
2023/06/12 07:25:40;672973.00;2.24;1160.40;169389.00;0.56;293.21;;;;;36.80;1.00;;;;;;2272064;61;1918;-87
2023/06/12 07:33:19;406381.00;1.35;700.78;12355.00;0.04;22.03;;;;;36.10;1.00;;;;;;2350396;40;3509;-88
2023/06/12 07:38:21;160834.00;0.54;278.48;0.00;0.00;0.62;;;;;36.70;1.00;;;;;;2311221;55;3645;-86
2023/06/12 07:40:48;195345.00;0.65;337.91;221.00;0.00;1.00;;;;;36.20;1.00;;;;;;2280198;61;997;-86
2023/06/12 07:51:02;907537.00;3.03;1569.36;71860.00;0.24;124.97;;;;;34.80;1.00;;;;;;2297549;56;2154;-86
2023/06/12 07:53:30;354573.00;1.18;611.72;67983.00;0.23;118.27;;;;;34.70;1.00;;;;;;2284152;61;1028;-88
2023/06/12 07:55:56;351453.00;1.17;606.36;69371.00;0.23;120.67;;;;;34.60;1.00;;;;;;2282996;61;1473;-86
2023/06/12 07:58:24;378323.00;1.26;652.54;76519.00;0.26;133.02;;;;;35.20;1.00;;;;;;2280080;61;1586;-89
2023/06/12 08:00:54;222997.00;0.74;385.50;77325.00;0.26;134.42;;;;;34.90;1.00;;;;;;2280004;61;1552;-88
2023/06/12 08:03:24;266382.00;0.89;460.12;73242.00;0.24;127.36;;;;;35.40;1.00;;;;;;2280008;61;1138;-87
2023/06/12 08:11:01;98144.00;0.33;170.37;0.00;0.00;0.62;;;;;34.80;1.00;;;;;;2443966;55;2132;-88
2023/06/12 08:18:40;188163.00;0.63;325.55;0.00;0.00;0.62;;;;;35.60;1.00;;;;;;2382303;55;3620;-87
2023/06/12 08:26:28;69159.00;0.23;120.31;0.00;0.00;0.62;;;;;35.30;1.00;;;;;;2336773;40;2051;-89
2023/06/12 08:28:56;51233.00;0.17;89.32;0.00;0.00;0.62;;;;;34.50;1.00;;;;;;2275985;61;998;-87
2023/06/12 08:31:23;154917.00;0.52;268.28;72448.00;0.24;125.99;;;;;34.40;1.00;;;;;;2275947;61;1075;-88
2023/06/12 08:33:56;107483.00;0.36;186.49;28714.00;0.10;50.36;;;;;34.40;1.00;;;;;;2275866;61;1007;-87
2023/06/12 08:36:23;58370.00;0.19;101.66;0.00;0.00;0.62;;;;;34.00;1.00;;;;;;2275949;61;2181;-88
2023/06/12 08:38:50;21888.00;0.07;38.54;0.00;0.00;0.62;;;;;33.50;1.00;;;;;;2275869;61;2236;-87
2023/06/12 08:41:23;166409.00;0.55;288.08;47434.00;0.16;82.75;;;;;33.30;1.00;;;;;;2275925;61;920;-86
2023/06/12 08:43:54;32561.00;0.11;57.02;0.00;0.00;0.62;;;;;33.10;1.00;;;;;;2275897;61;1768;-88
2023/06/12 08:46:21;64876.00;0.22;112.91;0.00;0.00;0.62;;;;;33.00;1.00;;;;;;2275787;61;2008;-88
2023/06/12 08:48:51;0.00;0.00;0.62;0.00;0.00;0.62;;;;;32.90;1.00;;;;;;2275917;61;997;-89
2023/06/12 08:53:48;164258.00;0.55;284.38;0.00;0.00;0.62;;;;;32.30;1.00;;;;;;2278490;61;1300;-89
2023/06/12 08:56:15;256961.00;0.86;443.92;40189.00;0.13;70.22;;;;;32.40;1.00;;;;;;2274112;61;1570;-90
2023/06/12 08:58:42;0.00;0.00;0.62;0.00;0.00;0.62;;;;;32.70;1.00;;;;;;2271900;61;2411;-87
2023/06/12 09:06:18;106797.00;0.36;185.30;0.00;0.00;0.62;;;;;31.70;1.00;;;;;;2273242;61;1977;-89
2023/06/12 09:08:46;337902.00;1.13;583.07;24446.00;0.08;42.97;;;;;32.10;1.00;;;;;;2271783;61;1595;-88
2023/06/12 09:18:53;319418.00;1.06;551.30;72035.00;0.24;125.28;;;;;31.20;1.00;;;;;;2107998;55;2381;-91
2023/06/12 09:24:03;170669.00;0.57;295.42;0.00;0.00;0.62;;;;;31.80;1.00;;;;;;2285892;40;3570;-89
2023/06/12 09:39:16;97448.00;0.32;169.17;0.00;0.00;0.62;;;;;30.40;1.00;;;;;;2278288;61;1415;-89
2023/06/12 09:41:49;176504.00;0.59;305.47;21029.00;0.07;37.05;;;;;30.60;1.00;;;;;;2276498;61;1144;-88
2023/06/12 09:44:24;597114.00;1.99;1029.24;7242.00;0.02;13.17;;;;;30.10;1.00;;;;;;2282117;55;3890;-88
2023/06/12 09:46:51;369354.00;1.23;637.13;20662.00;0.07;36.42;;;;;30.50;1.00;;;;;;2310612;40;3502;-88
2023/06/12 09:49:22;830052.00;2.77;1433.59;44541.00;0.15;77.74;;;;;30.90;1.00;;;;;;2280474;61;995;-88
2023/06/12 09:51:52;576786.00;1.92;994.15;177078.00;0.59;306.46;;;;;30.60;1.00;;;;;;2280390;61;1473;-90
2023/06/12 09:54:23;1113933.00;3.71;1935.36;21809.00;0.07;38.40;;;;;31.00;1.00;;;;;;2280539;61;1040;-89
2023/06/12 10:07:31;736211.00;2.45;1270.09;65283.00;0.22;113.61;;;;;30.20;1.00;;;;;;2278976;56;1532;-89
2023/06/12 10:10:06;248929.00;0.83;430.11;77515.00;0.26;134.74;;;;;29.90;1.00;;;;;;2276309;61;1099;-91
2023/06/12 10:12:34;625282.00;2.08;1077.89;177779.00;0.59;307.66;;;;;30.00;1.00;;;;;;2276344;61;1073;-88
2023/06/12 10:15:03;878032.00;2.93;1517.57;66490.00;0.22;115.69;;;;;29.30;1.00;;;;;;2276174;61;931;-87
2023/06/12 10:17:32;513395.00;1.71;884.89;71044.00;0.24;123.56;;;;;28.90;1.00;;;;;;2276345;61;1479;-88
2023/06/12 10:20:00;907258.00;3.02;1568.87;100153.00;0.33;173.84;;;;;29.70;1.00;;;;;;2276301;61;1139;-87
2023/06/12 10:22:27;855440.00;2.85;1477.99;94593.00;0.32;164.24;;;;;30.40;1.00;;;;;;2276318;61;853;-88
2023/06/12 10:24:56;390560.00;1.30;673.58;77333.00;0.26;134.43;;;;;30.30;1.00;;;;;;2276396;61;1215;-91
2023/06/12 10:32:49;1038460.00;3.46;1800.71;103997.00;0.35;180.47;;;;;30.70;1.00;;;;;;1580986;56;3526;-88
2023/06/12 10:40:51;519302.00;1.73;895.06;133618.00;0.45;231.57;;;;;30.20;1.00;;;;;;2291919;56;3906;-86
2023/06/12 10:45:58;984963.00;3.28;1705.86;110176.00;0.37;191.13;;;;;29.10;1.00;;;;;;2403230;55;1918;-88
2023/06/12 10:58:43;234810.00;0.78;405.82;0.00;0.00;0.62;;;;;28.30;1.00;;;;;;2331919;40;3682;-89
2023/06/12 11:01:15;421647.00;1.41;727.02;55501.00;0.19;96.70;;;;;28.00;1.00;;;;;;2355486;55;3793;-88
2023/06/12 11:08:52;208303.00;0.69;360.21;19098.00;0.06;33.71;;;;;27.80;1.00;;;;;;2343376;56;2041;-89
2023/06/12 11:16:40;167268.00;0.56;289.56;0.00;0.00;0.62;;;;;28.80;1.00;;;;;;2325388;55;3746;-88
2023/06/12 11:21:38;152161.00;0.51;263.53;0.00;0.00;0.62;;;;;28.40;1.00;;;;;;2277695;61;1379;-88
2023/06/12 11:26:35;413732.00;1.38;713.41;0.00;0.00;0.62;;;;;28.80;1.00;;;;;;2277907;61;1903;-89
2023/06/12 11:29:19;123551.00;0.41;214.21;0.00;0.00;0.62;;;;;29.30;1.00;;;;;;2275958;61;1669;-90
2023/06/12 11:32:01;0.00;0.00;0.62;0.00;0.00;0.62;;;;;29.70;1.00;;;;;;2275716;61;1579;-89
2023/06/12 11:34:33;18901.00;0.06;33.37;0.00;0.00;0.62;;;;;29.80;1.00;;;;;;2298511;55;3801;-90
2023/06/12 11:37:13;267635.00;0.89;462.28;63442.00;0.21;110.43;;;;;29.50;1.00;;;;;;2280082;61;1372;-88
2023/06/12 11:39:40;14955.00;0.05;26.53;0.00;0.00;0.62;;;;;29.70;1.00;;;;;;2283682;55;3755;-88
2023/06/12 11:42:08;88347.00;0.29;153.45;0.00;0.00;0.62;;;;;29.80;1.00;;;;;;2280079;61;1155;-89
2023/06/12 11:44:35;25478.00;0.08;44.76;0.00;0.00;0.62;;;;;29.50;1.00;;;;;;2280202;61;997;-87